Terminal Aerodrome Forecast
Issued by NWS Goodland, KS

Home | Current Version | Previous Version | Text Only | Print | Product List | Glossary Off
Versions: 1 2 3 4 5 6 7 8 9 10 11 12 13 14 15 16 17 18 19 20 21 22 23 24

000
FTUS43 KGLD 190955 AAB
TAFGLD
TAF AMD
KGLD 190955Z 1910/2006 VRB04KT P6SM SCT060
      TEMPO 1911/1913 3SM BR SCT010
     FM191300 26006KT P6SM SCT010 SCT120
     FM192100 23010KT P6SM SCT200=

USA.gov is the U.S. government's official web portal to all federal, state and local government web resources and services.